<?xml version="1.0" encoding="UTF-8" standalone="no" ?>
<gpx xmlns="http://www.topografix.com/GPX/1/1" xmlns:xsi="http://www.w3.org/2001/XMLSchema-instance" xsi:schemaLocation="http://www.topografix.com/GPX/1/1 http://www.topografix.com/GPX/1/1/gpx.xsd" version="1.1" creator="VisuGPX - https://www.visugpx.com">
  <metadata>
    <name>autre</name>
    <desc><![CDATA[Guillaume et Pierre]]></desc>
  </metadata>
  <trk>
    <name><![CDATA[ACTIVE LOG: 16 FEV 2014 12:31]]></name>
    <trkseg>
      <trkpt lat="45.77522" lon="4.81594">
        <ele>156.35</ele>
        <time>2014-02-16T11:31:28Z</time>
      </trkpt>
      <trkpt lat="45.77522" lon="4.81594">
        <ele>156.83</ele>
        <time>2014-02-16T11:41:02Z</time>
      </trkpt>
      <trkpt lat="45.77299" lon="4.83682">
        <ele>139.05</ele>
        <time>2014-02-16T11:41:06Z</time>
      </trkpt>
      <trkpt lat="45.77297" lon="4.83687">
        <ele>139.05</ele>
        <time>2014-02-16T11:41:07Z</time>
      </trkpt>
      <trkpt lat="45.77286" lon="4.83757">
        <ele>140.01</ele>
        <time>2014-02-16T11:41:19Z</time>
      </trkpt>
      <trkpt lat="45.77284" lon="4.83783">
        <ele>140.49</ele>
        <time>2014-02-16T11:41:27Z</time>
      </trkpt>
      <trkpt lat="45.7728" lon="4.83816">
        <ele>141.93</ele>
        <time>2014-02-16T11:41:35Z</time>
      </trkpt>
      <trkpt lat="45.7728" lon="4.8382">
        <ele>141.93</ele>
        <time>2014-02-16T11:41:36Z</time>
      </trkpt>
      <trkpt lat="45.77276" lon="4.83861">
        <ele>142.89</ele>
        <time>2014-02-16T11:41:45Z</time>
      </trkpt>
      <trkpt lat="45.77265" lon="4.83888">
        <ele>143.85</ele>
        <time>2014-02-16T11:41:55Z</time>
      </trkpt>
      <trkpt lat="45.77262" lon="4.83923">
        <ele>143.85</ele>
        <time>2014-02-16T11:42:04Z</time>
      </trkpt>
      <trkpt lat="45.77256" lon="4.83957">
        <ele>144.34</ele>
        <time>2014-02-16T11:42:14Z</time>
      </trkpt>
      <trkpt lat="45.77255" lon="4.83989">
        <ele>143.85</ele>
        <time>2014-02-16T11:42:22Z</time>
      </trkpt>
      <trkpt lat="45.77251" lon="4.84036">
        <ele>143.85</ele>
        <time>2014-02-16T11:42:35Z</time>
      </trkpt>
      <trkpt lat="45.77247" lon="4.84076">
        <ele>143.37</ele>
        <time>2014-02-16T11:42:45Z</time>
      </trkpt>
      <trkpt lat="45.77248" lon="4.84113">
        <ele>142.89</ele>
        <time>2014-02-16T11:42:54Z</time>
      </trkpt>
      <trkpt lat="45.77248" lon="4.84145">
        <ele>141.93</ele>
        <time>2014-02-16T11:43:02Z</time>
      </trkpt>
      <trkpt lat="45.77243" lon="4.84153">
        <ele>141.45</ele>
        <time>2014-02-16T11:43:08Z</time>
      </trkpt>
      <trkpt lat="45.77238" lon="4.84148">
        <ele>141.93</ele>
        <time>2014-02-16T11:43:10Z</time>
      </trkpt>
      <trkpt lat="45.77244" lon="4.84172">
        <ele>141.45</ele>
        <time>2014-02-16T11:43:18Z</time>
      </trkpt>
      <trkpt lat="45.77248" lon="4.84221">
        <ele>141.45</ele>
        <time>2014-02-16T11:43:30Z</time>
      </trkpt>
      <trkpt lat="45.77256" lon="4.84256">
        <ele>141.45</ele>
        <time>2014-02-16T11:43:40Z</time>
      </trkpt>
      <trkpt lat="45.77273" lon="4.84288">
        <ele>141.93</ele>
        <time>2014-02-16T11:43:49Z</time>
      </trkpt>
      <trkpt lat="45.7723" lon="4.84333">
        <ele>142.41</ele>
        <time>2014-02-16T11:44:03Z</time>
      </trkpt>
      <trkpt lat="45.7719" lon="4.84349">
        <ele>142.89</ele>
        <time>2014-02-16T11:44:17Z</time>
      </trkpt>
      <trkpt lat="45.77187" lon="4.84349">
        <ele>142.89</ele>
        <time>2014-02-16T11:44:18Z</time>
      </trkpt>
      <trkpt lat="45.77179" lon="4.84385">
        <ele>143.37</ele>
        <time>2014-02-16T11:44:29Z</time>
      </trkpt>
      <trkpt lat="45.77175" lon="4.84426">
        <ele>144.34</ele>
        <time>2014-02-16T11:44:41Z</time>
      </trkpt>
      <trkpt lat="45.7717" lon="4.8447">
        <ele>144.82</ele>
        <time>2014-02-16T11:44:56Z</time>
      </trkpt>
      <trkpt lat="45.77179" lon="4.84479">
        <ele>144.82</ele>
        <time>2014-02-16T11:45:00Z</time>
      </trkpt>
      <trkpt lat="45.77171" lon="4.84546">
        <ele>145.3</ele>
        <time>2014-02-16T11:45:12Z</time>
      </trkpt>
      <trkpt lat="45.77166" lon="4.84558">
        <ele>145.78</ele>
        <time>2014-02-16T11:45:14Z</time>
      </trkpt>
      <trkpt lat="45.77163" lon="4.84588">
        <ele>145.78</ele>
        <time>2014-02-16T11:45:26Z</time>
      </trkpt>
      <trkpt lat="45.77161" lon="4.84594">
        <ele>146.26</ele>
        <time>2014-02-16T11:45:29Z</time>
      </trkpt>
      <trkpt lat="45.77167" lon="4.84643">
        <ele>146.74</ele>
        <time>2014-02-16T11:45:42Z</time>
      </trkpt>
      <trkpt lat="45.77174" lon="4.84653">
        <ele>147.7</ele>
        <time>2014-02-16T11:45:56Z</time>
      </trkpt>
    </trkseg>
  </trk>
</gpx>